sensor_id;sensor_type;location;lat;lon;timestamp;P1;durP1;ratioP1;P2;durP2;ratioP2
9422;SDS011;4750;49.506;10.400;2022-11-20T00:01:36;18.50;;;13.27;;
9422;SDS011;4750;49.506;10.400;2022-11-20T00:04:20;22.97;;;14.47;;
9422;SDS011;4750;49.506;10.400;2022-11-20T00:07:04;18.93;;;13.17;;
9422;SDS011;4750;49.506;10.400;2022-11-20T00:09:48;20.27;;;13.23;;
9422;SDS011;4750;49.506;10.400;2022-11-20T00:12:32;22.17;;;14.70;;
9422;SDS011;4750;49.506;10.400;2022-11-20T00:15:16;20.33;;;13.43;;
9422;SDS011;4750;49.506;10.400;2022-11-20T00:18:00;20.67;;;13.77;;
9422;SDS011;4750;49.506;10.400;2022-11-20T00:20:44;18.57;;;13.37;;
9422;SDS011;4750;49.506;10.400;2022-11-20T00:23:29;20.00;;;13.70;;
9422;SDS011;4750;49.506;10.400;2022-11-20T00:26:15;16.97;;;12.53;;
9422;SDS011;4750;49.506;10.400;2022-11-20T00:29:00;16.77;;;12.70;;
9422;SDS011;4750;49.506;10.400;2022-11-20T00:31:44;18.20;;;13.07;;
9422;SDS011;4750;49.506;10.400;2022-11-20T00:34:28;18.03;;;12.93;;
9422;SDS011;4750;49.506;10.400;2022-11-20T00:37:12;17.87;;;13.00;;
9422;SDS011;4750;49.506;10.400;2022-11-20T00:39:56;18.60;;;13.63;;
9422;SDS011;4750;49.506;10.400;2022-11-20T00:42:40;20.23;;;13.10;;
9422;SDS011;4750;49.506;10.400;2022-11-20T00:45:24;19.53;;;13.30;;
9422;SDS011;4750;49.506;10.400;2022-11-20T00:48:08;20.83;;;14.20;;
9422;SDS011;4750;49.506;10.400;2022-11-20T00:50:52;19.87;;;14.07;;
9422;SDS011;4750;49.506;10.400;2022-11-20T00:53:37;20.03;;;13.93;;
9422;SDS011;4750;49.506;10.400;2022-11-20T00:56:21;18.97;;;13.50;;
9422;SDS011;4750;49.506;10.400;2022-11-20T00:59:05;22.93;;;14.00;;
9422;SDS011;4750;49.506;10.400;2022-11-20T01:01:49;18.27;;;13.60;;
9422;SDS011;4750;49.506;10.400;2022-11-20T01:04:33;21.07;;;14.60;;
9422;SDS011;4750;49.506;10.400;2022-11-20T01:07:17;21.37;;;13.77;;
9422;SDS011;4750;49.506;10.400;2022-11-20T01:10:01;20.50;;;14.73;;
9422;SDS011;4750;49.506;10.400;2022-11-20T01:12:45;20.00;;;14.70;;
9422;SDS011;4750;49.506;10.400;2022-11-20T01:15:49;18.90;;;13.57;;
9422;SDS011;4750;49.506;10.400;2022-11-20T01:18:33;20.53;;;14.07;;
9422;SDS011;4750;49.506;10.400;2022-11-20T01:21:22;19.20;;;13.00;;
9422;SDS011;4750;49.506;10.400;2022-11-20T01:24:10;19.83;;;13.77;;
9422;SDS011;4750;49.506;10.400;2022-11-20T01:26:56;22.47;;;15.60;;
9422;SDS011;4750;49.506;10.400;2022-11-20T01:29:40;20.93;;;14.33;;
9422;SDS011;4750;49.506;10.400;2022-11-20T01:32:24;21.23;;;14.10;;
9422;SDS011;4750;49.506;10.400;2022-11-20T01:35:08;20.17;;;13.93;;
9422;SDS011;4750;49.506;10.400;2022-11-20T01:37:52;17.97;;;13.10;;
9422;SDS011;4750;49.506;10.400;2022-11-20T01:40:37;18.47;;;12.90;;
9422;SDS011;4750;49.506;10.400;2022-11-20T01:43:20;20.90;;;14.60;;
9422;SDS011;4750;49.506;10.400;2022-11-20T01:52:07;22.50;;;13.97;;
9422;SDS011;4750;49.506;10.400;2022-11-20T01:55:00;22.13;;;14.20;;
9422;SDS011;4750;49.506;10.400;2022-11-20T01:57:49;23.00;;;15.27;;
9422;SDS011;4750;49.506;10.400;2022-11-20T02:00:34;23.47;;;15.57;;
9422;SDS011;4750;49.506;10.400;2022-11-20T02:03:19;26.17;;;16.00;;
9422;SDS011;4750;49.506;10.400;2022-11-20T02:06:14;23.27;;;14.80;;
9422;SDS011;4750;49.506;10.400;2022-11-20T02:09:03;25.97;;;16.20;;
9422;SDS011;4750;49.506;10.400;2022-11-20T02:11:47;25.77;;;15.77;;
9422;SDS011;4750;49.506;10.400;2022-11-20T02:14:30;22.53;;;15.10;;
9422;SDS011;4750;49.506;10.400;2022-11-20T02:17:15;25.93;;;16.43;;
9422;SDS011;4750;49.506;10.400;2022-11-20T02:19:59;25.93;;;15.80;;
9422;SDS011;4750;49.506;10.400;2022-11-20T02:22:57;25.73;;;15.83;;
9422;SDS011;4750;49.506;10.400;2022-11-20T02:25:46;23.53;;;15.70;;
9422;SDS011;4750;49.506;10.400;2022-11-20T02:28:31;25.97;;;16.83;;
9422;SDS011;4750;49.506;10.400;2022-11-20T02:31:15;26.03;;;16.07;;
9422;SDS011;4750;49.506;10.400;2022-11-20T02:34:00;26.33;;;16.77;;
9422;SDS011;4750;49.506;10.400;2022-11-20T02:36:44;26.33;;;15.63;;
9422;SDS011;4750;49.506;10.400;2022-11-20T02:39:29;30.50;;;15.77;;
9422;SDS011;4750;49.506;10.400;2022-11-20T02:42:13;24.03;;;15.90;;
9422;SDS011;4750;49.506;10.400;2022-11-20T02:44:57;23.47;;;15.40;;
9422;SDS011;4750;49.506;10.400;2022-11-20T02:47:41;26.33;;;16.40;;
9422;SDS011;4750;49.506;10.400;2022-11-20T02:50:25;28.23;;;16.87;;
9422;SDS011;4750;49.506;10.400;2022-11-20T02:53:09;27.63;;;15.73;;
9422;SDS011;4750;49.506;10.400;2022-11-20T02:55:53;22.70;;;15.43;;
9422;SDS011;4750;49.506;10.400;2022-11-20T02:58:37;24.20;;;16.07;;
9422;SDS011;4750;49.506;10.400;2022-11-20T03:01:21;23.73;;;16.23;;
9422;SDS011;4750;49.506;10.400;2022-11-20T03:04:06;25.23;;;15.60;;
9422;SDS011;4750;49.506;10.400;2022-11-20T03:06:50;26.53;;;16.10;;
9422;SDS011;4750;49.506;10.400;2022-11-20T03:09:34;24.60;;;15.43;;
9422;SDS011;4750;49.506;10.400;2022-11-20T03:12:18;23.83;;;15.67;;
9422;SDS011;4750;49.506;10.400;2022-11-20T03:15:02;24.77;;;16.00;;
9422;SDS011;4750;49.506;10.400;2022-11-20T03:17:46;30.60;;;17.70;;
9422;SDS011;4750;49.506;10.400;2022-11-20T03:20:31;29.23;;;16.87;;
9422;SDS011;4750;49.506;10.400;2022-11-20T03:23:16;26.93;;;17.07;;
9422;SDS011;4750;49.506;10.400;2022-11-20T03:26:10;28.67;;;17.20;;
9422;SDS011;4750;49.506;10.400;2022-11-20T03:28:59;24.27;;;16.00;;
9422;SDS011;4750;49.506;10.400;2022-11-20T03:31:45;21.43;;;14.23;;
9422;SDS011;4750;49.506;10.400;2022-11-20T03:34:30;24.53;;;16.17;;
9422;SDS011;4750;49.506;10.400;2022-11-20T03:37:14;26.77;;;15.90;;
9422;SDS011;4750;49.506;10.400;2022-11-20T03:39:58;26.77;;;16.87;;
9422;SDS011;4750;49.506;10.400;2022-11-20T03:42:42;26.80;;;16.10;;
9422;SDS011;4750;49.506;10.400;2022-11-20T03:45:29;27.13;;;17.00;;
9422;SDS011;4750;49.506;10.400;2022-11-20T03:48:13;25.77;;;16.93;;
9422;SDS011;4750;49.506;10.400;2022-11-20T03:51:07;28.90;;;17.17;;
9422;SDS011;4750;49.506;10.400;2022-11-20T03:53:53;26.87;;;16.37;;
9422;SDS011;4750;49.506;10.400;2022-11-20T03:56:38;27.77;;;16.93;;
9422;SDS011;4750;49.506;10.400;2022-11-20T03:59:22;22.87;;;15.73;;
9422;SDS011;4750;49.506;10.400;2022-11-20T04:02:06;26.03;;;15.97;;
9422;SDS011;4750;49.506;10.400;2022-11-20T04:04:50;27.60;;;16.73;;
9422;SDS011;4750;49.506;10.400;2022-11-20T04:07:34;28.67;;;16.73;;
9422;SDS011;4750;49.506;10.400;2022-11-20T04:10:19;28.97;;;17.43;;
9422;SDS011;4750;49.506;10.400;2022-11-20T04:13:03;30.27;;;17.47;;
9422;SDS011;4750;49.506;10.400;2022-11-20T04:15:47;30.33;;;17.70;;
9422;SDS011;4750;49.506;10.400;2022-11-20T04:18:31;31.53;;;17.97;;
9422;SDS011;4750;49.506;10.400;2022-11-20T04:21:15;26.80;;;17.50;;
9422;SDS011;4750;49.506;10.400;2022-11-20T04:23:59;27.30;;;16.53;;
9422;SDS011;4750;49.506;10.400;2022-11-20T04:26:44;27.47;;;16.93;;
9422;SDS011;4750;49.506;10.400;2022-11-20T04:29:28;29.33;;;16.53;;
9422;SDS011;4750;49.506;10.400;2022-11-20T04:32:12;25.07;;;15.73;;
9422;SDS011;4750;49.506;10.400;2022-11-20T04:34:56;26.30;;;16.00;;
9422;SDS011;4750;49.506;10.400;2022-11-20T04:37:40;26.23;;;17.10;;
9422;SDS011;4750;49.506;10.400;2022-11-20T04:40:24;25.57;;;16.63;;
9422;SDS011;4750;49.506;10.400;2022-11-20T04:43:08;29.20;;;17.43;;
9422;SDS011;4750;49.506;10.400;2022-11-20T04:45:53;26.43;;;16.17;;
9422;SDS011;4750;49.506;10.400;2022-11-20T04:48:38;26.33;;;17.10;;
9422;SDS011;4750;49.506;10.400;2022-11-20T04:51:22;28.90;;;18.40;;
9422;SDS011;4750;49.506;10.400;2022-11-20T04:54:06;26.67;;;16.83;;
9422;SDS011;4750;49.506;10.400;2022-11-20T04:56:50;25.57;;;17.10;;
9422;SDS011;4750;49.506;10.400;2022-11-20T04:59:34;26.20;;;17.40;;
9422;SDS011;4750;49.506;10.400;2022-11-20T05:02:18;23.10;;;15.00;;
9422;SDS011;4750;49.506;10.400;2022-11-20T05:05:02;25.17;;;14.77;;
9422;SDS011;4750;49.506;10.400;2022-11-20T05:07:46;24.13;;;15.37;;
9422;SDS011;4750;49.506;10.400;2022-11-20T05:10:30;23.07;;;15.63;;
9422;SDS011;4750;49.506;10.400;2022-11-20T05:13:14;23.30;;;15.67;;
9422;SDS011;4750;49.506;10.400;2022-11-20T05:16:05;23.70;;;15.07;;
9422;SDS011;4750;49.506;10.400;2022-11-20T05:18:52;25.10;;;15.43;;
9422;SDS011;4750;49.506;10.400;2022-11-20T05:21:38;22.03;;;14.97;;
9422;SDS011;4750;49.506;10.400;2022-11-20T05:24:22;23.63;;;15.17;;
9422;SDS011;4750;49.506;10.400;2022-11-20T05:27:06;25.53;;;15.50;;
9422;SDS011;4750;49.506;10.400;2022-11-20T05:29:50;22.47;;;14.27;;
9422;SDS011;4750;49.506;10.400;2022-11-20T05:32:34;23.17;;;15.33;;
9422;SDS011;4750;49.506;10.400;2022-11-20T05:35:18;25.80;;;15.87;;
9422;SDS011;4750;49.506;10.400;2022-11-20T05:38:02;26.03;;;15.87;;
9422;SDS011;4750;49.506;10.400;2022-11-20T05:40:46;26.67;;;16.07;;
9422;SDS011;4750;49.506;10.400;2022-11-20T05:43:34;26.87;;;16.40;;
9422;SDS011;4750;49.506;10.400;2022-11-20T05:46:19;27.53;;;17.17;;
9422;SDS011;4750;49.506;10.400;2022-11-20T05:49:04;31.30;;;17.60;;
9422;SDS011;4750;49.506;10.400;2022-11-20T05:51:48;25.80;;;16.30;;
9422;SDS011;4750;49.506;10.400;2022-11-20T05:54:32;28.60;;;16.77;;
9422;SDS011;4750;49.506;10.400;2022-11-20T05:57:16;25.97;;;15.67;;
9422;SDS011;4750;49.506;10.400;2022-11-20T06:00:00;25.57;;;14.87;;
9422;SDS011;4750;49.506;10.400;2022-11-20T06:02:48;26.53;;;15.97;;
9422;SDS011;4750;49.506;10.400;2022-11-20T06:05:33;24.47;;;15.40;;
9422;SDS011;4750;49.506;10.400;2022-11-20T06:08:17;27.00;;;15.90;;
9422;SDS011;4750;49.506;10.400;2022-11-20T06:11:08;29.13;;;16.73;;
9422;SDS011;4750;49.506;10.400;2022-11-20T06:13:53;31.83;;;17.67;;
9422;SDS011;4750;49.506;10.400;2022-11-20T06:16:38;30.30;;;17.97;;
9422;SDS011;4750;49.506;10.400;2022-11-20T06:19:22;30.60;;;17.60;;
9422;SDS011;4750;49.506;10.400;2022-11-20T06:22:05;28.57;;;17.00;;
9422;SDS011;4750;49.506;10.400;2022-11-20T06:24:49;29.73;;;17.40;;
9422;SDS011;4750;49.506;10.400;2022-11-20T06:27:33;26.77;;;16.37;;
9422;SDS011;4750;49.506;10.400;2022-11-20T06:30:17;26.37;;;15.97;;
9422;SDS011;4750;49.506;10.400;2022-11-20T06:33:01;25.90;;;15.30;;
9422;SDS011;4750;49.506;10.400;2022-11-20T06:35:45;24.97;;;15.43;;
9422;SDS011;4750;49.506;10.400;2022-11-20T06:38:29;26.50;;;15.83;;
9422;SDS011;4750;49.506;10.400;2022-11-20T06:41:14;26.30;;;15.57;;
9422;SDS011;4750;49.506;10.400;2022-11-20T06:44:00;27.33;;;17.13;;
9422;SDS011;4750;49.506;10.400;2022-11-20T06:46:44;24.67;;;15.87;;
9422;SDS011;4750;49.506;10.400;2022-11-20T06:49:28;26.70;;;16.93;;
9422;SDS011;4750;49.506;10.400;2022-11-20T06:52:12;30.23;;;17.50;;
9422;SDS011;4750;49.506;10.400;2022-11-20T06:54:56;27.17;;;17.43;;
9422;SDS011;4750;49.506;10.400;2022-11-20T06:57:40;28.93;;;17.20;;
9422;SDS011;4750;49.506;10.400;2022-11-20T07:00:24;26.20;;;16.20;;
9422;SDS011;4750;49.506;10.400;2022-11-20T07:03:09;24.67;;;15.43;;
9422;SDS011;4750;49.506;10.400;2022-11-20T07:05:55;25.70;;;15.80;;
9422;SDS011;4750;49.506;10.400;2022-11-20T07:08:40;24.53;;;15.00;;
9422;SDS011;4750;49.506;10.400;2022-11-20T07:11:23;22.67;;;14.93;;
9422;SDS011;4750;49.506;10.400;2022-11-20T07:14:08;26.03;;;14.97;;
9422;SDS011;4750;49.506;10.400;2022-11-20T07:16:52;24.90;;;15.27;;
9422;SDS011;4750;49.506;10.400;2022-11-20T07:19:36;22.63;;;14.80;;
9422;SDS011;4750;49.506;10.400;2022-11-20T07:22:20;28.23;;;16.47;;
9422;SDS011;4750;49.506;10.400;2022-11-20T07:25:05;26.70;;;17.53;;
9422;SDS011;4750;49.506;10.400;2022-11-20T07:27:50;27.40;;;18.07;;
9422;SDS011;4750;49.506;10.400;2022-11-20T07:30:35;35.77;;;19.90;;
9422;SDS011;4750;49.506;10.400;2022-11-20T07:33:19;30.80;;;18.70;;
9422;SDS011;4750;49.506;10.400;2022-11-20T07:36:04;28.13;;;17.73;;
9422;SDS011;4750;49.506;10.400;2022-11-20T07:38:48;25.23;;;14.93;;
9422;SDS011;4750;49.506;10.400;2022-11-20T07:41:32;21.87;;;14.17;;
9422;SDS011;4750;49.506;10.400;2022-11-20T07:44:16;23.80;;;15.03;;
9422;SDS011;4750;49.506;10.400;2022-11-20T07:47:00;24.70;;;15.60;;
9422;SDS011;4750;49.506;10.400;2022-11-20T07:49:44;21.57;;;15.10;;
9422;SDS011;4750;49.506;10.400;2022-11-20T07:52:28;24.40;;;15.87;;
9422;SDS011;4750;49.506;10.400;2022-11-20T07:55:12;28.63;;;17.30;;
9422;SDS011;4750;49.506;10.400;2022-11-20T07:57:56;25.13;;;15.93;;
9422;SDS011;4750;49.506;10.400;2022-11-20T08:00:41;24.17;;;15.87;;
9422;SDS011;4750;49.506;10.400;2022-11-20T08:03:25;22.53;;;14.77;;
9422;SDS011;4750;49.506;10.400;2022-11-20T08:06:09;23.00;;;15.13;;
9422;SDS011;4750;49.506;10.400;2022-11-20T08:08:53;24.70;;;14.57;;
9422;SDS011;4750;49.506;10.400;2022-11-20T08:11:37;23.57;;;15.60;;
9422;SDS011;4750;49.506;10.400;2022-11-20T08:14:40;20.83;;;14.43;;
9422;SDS011;4750;49.506;10.400;2022-11-20T08:17:24;25.53;;;17.40;;
9422;SDS011;4750;49.506;10.400;2022-11-20T08:20:08;26.10;;;17.37;;
9422;SDS011;4750;49.506;10.400;2022-11-20T08:22:56;24.00;;;15.37;;
9422;SDS011;4750;49.506;10.400;2022-11-20T08:25:42;23.70;;;15.43;;
9422;SDS011;4750;49.506;10.400;2022-11-20T08:28:26;22.07;;;14.43;;
9422;SDS011;4750;49.506;10.400;2022-11-20T08:31:10;22.17;;;14.60;;
9422;SDS011;4750;49.506;10.400;2022-11-20T08:33:54;20.43;;;13.97;;
9422;SDS011;4750;49.506;10.400;2022-11-20T08:36:38;20.40;;;14.17;;
9422;SDS011;4750;49.506;10.400;2022-11-20T08:39:22;31.23;;;17.60;;
9422;SDS011;4750;49.506;10.400;2022-11-20T08:42:06;23.90;;;13.90;;
9422;SDS011;4750;49.506;10.400;2022-11-20T08:44:51;20.93;;;14.20;;
9422;SDS011;4750;49.506;10.400;2022-11-20T08:47:35;20.00;;;12.53;;
9422;SDS011;4750;49.506;10.400;2022-11-20T08:50:19;20.97;;;13.33;;
9422;SDS011;4750;49.506;10.400;2022-11-20T08:53:03;18.77;;;13.13;;
9422;SDS011;4750;49.506;10.400;2022-11-20T08:55:48;21.30;;;14.03;;
9422;SDS011;4750;49.506;10.400;2022-11-20T08:58:32;20.60;;;13.37;;
9422;SDS011;4750;49.506;10.400;2022-11-20T09:01:16;18.80;;;13.30;;
9422;SDS011;4750;49.506;10.400;2022-11-20T09:04:00;20.20;;;13.63;;
9422;SDS011;4750;49.506;10.400;2022-11-20T09:06:44;23.53;;;13.23;;
9422;SDS011;4750;49.506;10.400;2022-11-20T09:09:28;23.43;;;15.47;;
9422;SDS011;4750;49.506;10.400;2022-11-20T09:12:12;23.37;;;14.90;;
9422;SDS011;4750;49.506;10.400;2022-11-20T09:14:56;20.97;;;14.17;;
9422;SDS011;4750;49.506;10.400;2022-11-20T09:17:40;19.67;;;13.60;;
9422;SDS011;4750;49.506;10.400;2022-11-20T09:20:24;22.53;;;14.00;;
9422;SDS011;4750;49.506;10.400;2022-11-20T09:23:09;20.73;;;14.03;;
9422;SDS011;4750;49.506;10.400;2022-11-20T09:25:53;22.57;;;14.97;;
9422;SDS011;4750;49.506;10.400;2022-11-20T09:28:39;19.70;;;13.27;;
9422;SDS011;4750;49.506;10.400;2022-11-20T09:31:24;20.20;;;14.30;;
9422;SDS011;4750;49.506;10.400;2022-11-20T09:34:09;19.87;;;13.80;;
9422;SDS011;4750;49.506;10.400;2022-11-20T09:36:53;23.50;;;15.00;;
9422;SDS011;4750;49.506;10.400;2022-11-20T09:39:37;23.53;;;14.90;;
9422;SDS011;4750;49.506;10.400;2022-11-20T09:42:26;19.07;;;13.77;;
9422;SDS011;4750;49.506;10.400;2022-11-20T09:48:18;17.63;;;13.00;;
9422;SDS011;4750;49.506;10.400;2022-11-20T09:51:15;19.43;;;13.63;;
9422;SDS011;4750;49.506;10.400;2022-11-20T09:57:03;18.67;;;12.53;;
9422;SDS011;4750;49.506;10.400;2022-11-20T09:59:56;19.53;;;12.90;;
9422;SDS011;4750;49.506;10.400;2022-11-20T10:03:01;43.93;;;26.47;;
9422;SDS011;4750;49.506;10.400;2022-11-20T10:05:51;34.50;;;21.40;;
9422;SDS011;4750;49.506;10.400;2022-11-20T10:08:48;22.67;;;15.27;;
9422;SDS011;4750;49.506;10.400;2022-11-20T10:14:50;18.90;;;14.20;;
9422;SDS011;4750;49.506;10.400;2022-11-20T10:20:57;36.17;;;24.00;;
9422;SDS011;4750;49.506;10.400;2022-11-20T10:23:55;21.70;;;14.53;;
9422;SDS011;4750;49.506;10.400;2022-11-20T10:27:07;22.73;;;13.50;;
9422;SDS011;4750;49.506;10.400;2022-11-20T10:29:59;21.03;;;13.60;;
9422;SDS011;4750;49.506;10.400;2022-11-20T10:32:53;20.17;;;14.37;;
9422;SDS011;4750;49.506;10.400;2022-11-20T10:35:44;19.60;;;13.97;;
9422;SDS011;4750;49.506;10.400;2022-11-20T10:41:27;16.80;;;11.07;;
9422;SDS011;4750;49.506;10.400;2022-11-20T10:44:21;20.77;;;12.57;;
9422;SDS011;4750;49.506;10.400;2022-11-20T10:47:30;16.63;;;10.67;;
9422;SDS011;4750;49.506;10.400;2022-11-20T10:50:20;15.90;;;10.77;;
9422;SDS011;4750;49.506;10.400;2022-11-20T10:53:13;13.87;;;9.47;;
9422;SDS011;4750;49.506;10.400;2022-11-20T10:59:15;13.93;;;9.73;;
9422;SDS011;4750;49.506;10.400;2022-11-20T11:02:30;17.63;;;10.60;;
9422;SDS011;4750;49.506;10.400;2022-11-20T11:08:04;16.70;;;10.50;;
9422;SDS011;4750;49.506;10.400;2022-11-20T11:11:30;17.00;;;11.30;;
9422;SDS011;4750;49.506;10.400;2022-11-20T11:14:14;12.37;;;9.37;;
9422;SDS011;4750;49.506;10.400;2022-11-20T11:16:59;13.03;;;8.70;;
9422;SDS011;4750;49.506;10.400;2022-11-20T11:19:43;34.90;;;21.77;;
9422;SDS011;4750;49.506;10.400;2022-11-20T11:22:28;44.27;;;29.23;;
9422;SDS011;4750;49.506;10.400;2022-11-20T11:25:33;16.77;;;12.03;;
9422;SDS011;4750;49.506;10.400;2022-11-20T11:28:22;16.93;;;11.80;;
9422;SDS011;4750;49.506;10.400;2022-11-20T11:31:10;17.00;;;13.27;;
9422;SDS011;4750;49.506;10.400;2022-11-20T11:34:04;12.20;;;9.43;;
9422;SDS011;4750;49.506;10.400;2022-11-20T11:36:58;13.27;;;11.20;;
9422;SDS011;4750;49.506;10.400;2022-11-20T11:39:42;17.23;;;12.17;;
9422;SDS011;4750;49.506;10.400;2022-11-20T11:42:27;14.00;;;10.23;;
9422;SDS011;4750;49.506;10.400;2022-11-20T11:45:14;13.60;;;9.53;;
9422;SDS011;4750;49.506;10.400;2022-11-20T11:48:01;20.60;;;13.70;;
9422;SDS011;4750;49.506;10.400;2022-11-20T11:50:50;16.80;;;13.60;;
9422;SDS011;4750;49.506;10.400;2022-11-20T11:53:35;16.70;;;12.77;;
9422;SDS011;4750;49.506;10.400;2022-11-20T11:56:25;10.50;;;7.70;;
9422;SDS011;4750;49.506;10.400;2022-11-20T11:59:11;12.03;;;8.27;;
9422;SDS011;4750;49.506;10.400;2022-11-20T12:02:02;18.63;;;9.97;;
9422;SDS011;4750;49.506;10.400;2022-11-20T12:05:06;13.93;;;8.43;;
9422;SDS011;4750;49.506;10.400;2022-11-20T12:08:17;13.63;;;8.30;;
9422;SDS011;4750;49.506;10.400;2022-11-20T12:13:55;11.30;;;8.47;;
9422;SDS011;4750;49.506;10.400;2022-11-20T12:16:47;10.80;;;7.70;;
9422;SDS011;4750;49.506;10.400;2022-11-20T12:19:31;14.30;;;10.40;;
9422;SDS011;4750;49.506;10.400;2022-11-20T12:25:33;13.90;;;10.53;;
9422;SDS011;4750;49.506;10.400;2022-11-20T12:29:02;12.07;;;9.07;;
9422;SDS011;4750;49.506;10.400;2022-11-20T12:31:47;12.63;;;9.97;;
9422;SDS011;4750;49.506;10.400;2022-11-20T12:34:56;9.63;;;8.37;;
9422;SDS011;4750;49.506;10.400;2022-11-20T12:38:12;15.33;;;10.90;;
9422;SDS011;4750;49.506;10.400;2022-11-20T12:48:09;45.37;;;36.93;;
9422;SDS011;4750;49.506;10.400;2022-11-20T12:57:29;12.63;;;9.00;;
9422;SDS011;4750;49.506;10.400;2022-11-20T13:00:28;10.00;;;7.70;;
9422;SDS011;4750;49.506;10.400;2022-11-20T13:03:33;10.90;;;8.70;;
9422;SDS011;4750;49.506;10.400;2022-11-20T13:06:25;9.70;;;7.23;;
9422;SDS011;4750;49.506;10.400;2022-11-20T13:09:10;11.83;;;7.47;;
9422;SDS011;4750;49.506;10.400;2022-11-20T13:12:18;11.30;;;8.07;;
9422;SDS011;4750;49.506;10.400;2022-11-20T13:18:29;10.10;;;7.70;;
9422;SDS011;4750;49.506;10.400;2022-11-20T13:21:35;9.53;;;7.10;;
9422;SDS011;4750;49.506;10.400;2022-11-20T13:24:22;10.00;;;7.70;;
9422;SDS011;4750;49.506;10.400;2022-11-20T13:30:10;10.80;;;8.40;;
9422;SDS011;4750;49.506;10.400;2022-11-20T13:35:57;9.67;;;7.60;;
9422;SDS011;4750;49.506;10.400;2022-11-20T13:38:44;9.30;;;7.43;;
9422;SDS011;4750;49.506;10.400;2022-11-20T13:41:35;9.83;;;7.73;;
9422;SDS011;4750;49.506;10.400;2022-11-20T13:44:33;8.73;;;7.00;;
9422;SDS011;4750;49.506;10.400;2022-11-20T13:47:27;8.17;;;7.07;;
9422;SDS011;4750;49.506;10.400;2022-11-20T13:50:13;8.80;;;6.67;;
9422;SDS011;4750;49.506;10.400;2022-11-20T13:53:03;14.73;;;10.33;;
9422;SDS011;4750;49.506;10.400;2022-11-20T13:56:25;16.47;;;12.00;;
9422;SDS011;4750;49.506;10.400;2022-11-20T14:05:54;18.83;;;11.57;;
9422;SDS011;4750;49.506;10.400;2022-11-20T14:08:45;17.30;;;10.93;;
9422;SDS011;4750;49.506;10.400;2022-11-20T14:11:31;13.70;;;10.73;;
9422;SDS011;4750;49.506;10.400;2022-11-20T14:14:16;14.47;;;10.07;;
9422;SDS011;4750;49.506;10.400;2022-11-20T14:17:15;13.60;;;10.60;;
9422;SDS011;4750;49.506;10.400;2022-11-20T14:20:05;11.40;;;9.17;;
9422;SDS011;4750;49.506;10.400;2022-11-20T14:22:52;12.23;;;9.27;;
9422;SDS011;4750;49.506;10.400;2022-11-20T14:25:37;10.53;;;8.70;;
9422;SDS011;4750;49.506;10.400;2022-11-20T14:28:26;12.53;;;9.60;;
9422;SDS011;4750;49.506;10.400;2022-11-20T14:31:16;13.50;;;8.73;;
9422;SDS011;4750;49.506;10.400;2022-11-20T14:34:10;10.97;;;7.97;;
9422;SDS011;4750;49.506;10.400;2022-11-20T14:36:59;9.37;;;8.00;;
9422;SDS011;4750;49.506;10.400;2022-11-20T14:39:55;10.67;;;8.20;;
9422;SDS011;4750;49.506;10.400;2022-11-20T14:42:43;9.50;;;8.17;;
9422;SDS011;4750;49.506;10.400;2022-11-20T14:45:27;11.37;;;8.43;;
9422;SDS011;4750;49.506;10.400;2022-11-20T14:48:12;13.00;;;8.80;;
9422;SDS011;4750;49.506;10.400;2022-11-20T14:50:56;11.20;;;8.70;;
9422;SDS011;4750;49.506;10.400;2022-11-20T14:53:41;10.77;;;8.07;;
9422;SDS011;4750;49.506;10.400;2022-11-20T14:56:25;10.20;;;7.30;;
9422;SDS011;4750;49.506;10.400;2022-11-20T14:59:09;12.20;;;9.10;;
9422;SDS011;4750;49.506;10.400;2022-11-20T15:01:57;12.77;;;9.43;;
9422;SDS011;4750;49.506;10.400;2022-11-20T15:04:51;11.30;;;9.17;;
9422;SDS011;4750;49.506;10.400;2022-11-20T15:07:44;13.47;;;10.23;;
9422;SDS011;4750;49.506;10.400;2022-11-20T15:10:29;11.97;;;8.83;;
9422;SDS011;4750;49.506;10.400;2022-11-20T15:13:15;13.00;;;8.97;;
9422;SDS011;4750;49.506;10.400;2022-11-20T15:16:13;10.63;;;7.97;;
9422;SDS011;4750;49.506;10.400;2022-11-20T15:19:07;14.27;;;10.40;;
9422;SDS011;4750;49.506;10.400;2022-11-20T15:22:00;18.87;;;13.27;;
9422;SDS011;4750;49.506;10.400;2022-11-20T15:24:44;14.93;;;10.83;;
9422;SDS011;4750;49.506;10.400;2022-11-20T15:27:29;12.33;;;8.87;;
9422;SDS011;4750;49.506;10.400;2022-11-20T15:32:59;16.43;;;10.83;;
9422;SDS011;4750;49.506;10.400;2022-11-20T15:35:43;19.70;;;13.20;;
9422;SDS011;4750;49.506;10.400;2022-11-20T15:38:27;18.90;;;12.80;;
9422;SDS011;4750;49.506;10.400;2022-11-20T15:41:11;30.13;;;17.87;;
9422;SDS011;4750;49.506;10.400;2022-11-20T15:43:55;25.40;;;17.67;;
9422;SDS011;4750;49.506;10.400;2022-11-20T15:46:40;24.67;;;18.23;;
9422;SDS011;4750;49.506;10.400;2022-11-20T15:49:27;22.70;;;16.67;;
9422;SDS011;4750;49.506;10.400;2022-11-20T15:52:11;27.53;;;19.47;;
9422;SDS011;4750;49.506;10.400;2022-11-20T15:54:57;37.50;;;23.40;;
9422;SDS011;4750;49.506;10.400;2022-11-20T15:57:41;31.80;;;21.83;;
9422;SDS011;4750;49.506;10.400;2022-11-20T16:00:25;42.50;;;26.90;;
9422;SDS011;4750;49.506;10.400;2022-11-20T16:03:10;45.00;;;27.60;;
9422;SDS011;4750;49.506;10.400;2022-11-20T16:05:55;48.53;;;28.10;;
9422;SDS011;4750;49.506;10.400;2022-11-20T16:08:39;25.33;;;17.23;;
9422;SDS011;4750;49.506;10.400;2022-11-20T16:11:23;40.10;;;24.40;;
9422;SDS011;4750;49.506;10.400;2022-11-20T16:14:09;42.43;;;25.00;;
9422;SDS011;4750;49.506;10.400;2022-11-20T16:17:12;40.37;;;24.10;;
9422;SDS011;4750;49.506;10.400;2022-11-20T16:19:57;42.13;;;25.33;;
9422;SDS011;4750;49.506;10.400;2022-11-20T16:22:41;37.67;;;25.63;;
9422;SDS011;4750;49.506;10.400;2022-11-20T16:25:26;39.73;;;25.27;;
9422;SDS011;4750;49.506;10.400;2022-11-20T16:28:11;30.90;;;21.67;;
9422;SDS011;4750;49.506;10.400;2022-11-20T16:30:55;31.07;;;22.83;;
9422;SDS011;4750;49.506;10.400;2022-11-20T16:33:39;32.77;;;22.40;;
9422;SDS011;4750;49.506;10.400;2022-11-20T16:36:24;30.57;;;21.57;;
9422;SDS011;4750;49.506;10.400;2022-11-20T16:39:11;26.80;;;19.03;;
9422;SDS011;4750;49.506;10.400;2022-11-20T16:41:55;26.10;;;19.47;;
9422;SDS011;4750;49.506;10.400;2022-11-20T16:44:40;29.10;;;18.87;;
9422;SDS011;4750;49.506;10.400;2022-11-20T16:47:23;25.23;;;17.17;;
9422;SDS011;4750;49.506;10.400;2022-11-20T16:50:08;28.87;;;20.10;;
9422;SDS011;4750;49.506;10.400;2022-11-20T16:52:53;33.67;;;21.20;;
9422;SDS011;4750;49.506;10.400;2022-11-20T16:55:37;27.40;;;19.20;;
9422;SDS011;4750;49.506;10.400;2022-11-20T16:58:21;28.90;;;19.13;;
9422;SDS011;4750;49.506;10.400;2022-11-20T17:01:06;29.27;;;18.27;;
9422;SDS011;4750;49.506;10.400;2022-11-20T17:04:00;24.80;;;17.83;;
9422;SDS011;4750;49.506;10.400;2022-11-20T17:06:45;26.03;;;18.43;;
9422;SDS011;4750;49.506;10.400;2022-11-20T17:09:30;26.97;;;19.27;;
9422;SDS011;4750;49.506;10.400;2022-11-20T17:12:14;25.70;;;18.30;;
9422;SDS011;4750;49.506;10.400;2022-11-20T17:14:58;25.27;;;16.93;;
9422;SDS011;4750;49.506;10.400;2022-11-20T17:17:42;25.53;;;17.67;;
9422;SDS011;4750;49.506;10.400;2022-11-20T17:20:27;27.77;;;17.27;;
9422;SDS011;4750;49.506;10.400;2022-11-20T17:23:11;22.80;;;15.73;;
9422;SDS011;4750;49.506;10.400;2022-11-20T17:26:05;22.60;;;16.37;;
9422;SDS011;4750;49.506;10.400;2022-11-20T17:28:55;22.27;;;16.37;;
9422;SDS011;4750;49.506;10.400;2022-11-20T17:31:44;28.90;;;19.23;;
9422;SDS011;4750;49.506;10.400;2022-11-20T17:34:28;26.07;;;17.73;;
9422;SDS011;4750;49.506;10.400;2022-11-20T17:37:12;23.57;;;16.73;;
9422;SDS011;4750;49.506;10.400;2022-11-20T17:39:56;19.87;;;14.20;;